createdAt,value
2023-04-29T00:01:10.147Z,101371.58
2023-04-29T00:03:38.355Z,101378.12
2023-04-29T00:06:07.155Z,101375.54
2023-04-29T00:08:35.325Z,101372.66
2023-04-29T00:11:03.292Z,101366.12
2023-04-29T00:13:31.157Z,101373.48
2023-04-29T00:15:59.165Z,101370.86
2023-04-29T00:18:27.127Z,101371.35
2023-04-29T00:20:55.066Z,101365.63
2023-04-29T00:23:22.906Z,101372.17
2023-04-29T00:25:51.748Z,101375.83
2023-04-29T00:28:19.674Z,101367.52
2023-04-29T00:30:47.909Z,101373.74
2023-04-29T00:33:15.799Z,101370.08
2023-04-29T00:35:43.691Z,101370.86
2023-04-29T00:38:12.107Z,101361.45
2023-04-29T00:40:40.785Z,101367.52
2023-04-29T00:43:08.643Z,101358.89
2023-04-29T00:45:36.512Z,101354.70
2023-04-29T00:48:04.589Z,101360.46
2023-04-29T00:50:32.657Z,101366.22
2023-04-29T00:53:01.418Z,101363.34
2023-04-29T00:55:30.227Z,101371.45
2023-04-29T00:57:59.044Z,101370.96
2023-04-29T01:00:28.135Z,101372.56
2023-04-29T01:02:58.977Z,101367.59
2023-04-29T01:05:27.059Z,101365.50
2023-04-29T01:08:07.523Z,101363.44
2023-04-29T01:10:45.989Z,101361.34
2023-04-29T01:13:32.408Z,101359.74
2023-04-29T01:16:05.185Z,101359.74
2023-04-29T01:18:41.857Z,101358.17
2023-04-29T01:21:10.472Z,101365.50
2023-04-29T01:23:38.465Z,101363.93
2023-04-29T01:26:07.393Z,101366.22
2023-04-29T01:28:52.270Z,101367.52
2023-04-29T01:31:23.108Z,101356.51
2023-04-29T01:33:57.128Z,101360.66
2023-04-29T01:36:48.476Z,101356.99
2023-04-29T01:39:46.785Z,101345.48
2023-04-29T01:42:47.339Z,101347.05
2023-04-29T01:45:20.409Z,101343.91
2023-04-29T01:47:49.088Z,101344.90
2023-04-29T01:50:17.065Z,101349.57
2023-04-29T01:52:44.981Z,101355.82
2023-04-29T01:55:12.906Z,101350.59
2023-04-29T01:57:40.765Z,101349.77
2023-04-29T02:00:10.449Z,101351.34
2023-04-29T02:02:38.710Z,101356.80
2023-04-29T02:05:06.915Z,101355.52
2023-04-29T02:07:34.811Z,101353.92
2023-04-29T02:10:02.749Z,101356.05
2023-04-29T02:12:30.705Z,101357.62
2023-04-29T02:14:58.617Z,101359.68
2023-04-29T02:17:26.847Z,101361.77
2023-04-29T02:19:56.370Z,101353.66
2023-04-29T02:22:24.324Z,101356.80
2023-04-29T02:24:52.228Z,101353.92
2023-04-29T02:27:20.317Z,101362.55
2023-04-29T02:29:48.220Z,101358.92
2023-04-29T02:32:17.427Z,101366.45
2023-04-29T02:34:45.526Z,101358.11
2023-04-29T02:37:13.436Z,101361.48
2023-04-29T02:39:41.443Z,101362.26
2023-04-29T02:42:09.469Z,101354.94
2023-04-29T02:44:37.316Z,101349.18
2023-04-29T02:47:05.172Z,101341.56
2023-04-29T02:49:33.042Z,101346.04
2023-04-29T02:52:01.079Z,101340.77
2023-04-29T02:54:28.975Z,101339.66
2023-04-29T02:56:56.817Z,101348.00
2023-04-29T02:59:24.709Z,101349.57
2023-04-29T03:01:52.541Z,101352.98
2023-04-29T03:04:20.513Z,101346.44
2023-04-29T03:06:48.496Z,101339.37
2023-04-29T03:09:16.470Z,101343.85
2023-04-29T03:11:44.267Z,101348.30
2023-04-29T03:14:12.367Z,101340.19
2023-04-29T03:16:40.314Z,101345.42
2023-04-29T03:19:08.682Z,101343.36
2023-04-29T03:21:36.666Z,101347.80
2023-04-29T03:24:04.607Z,101344.15
2023-04-29T03:26:32.500Z,101349.38
2023-04-29T03:29:00.408Z,101346.53
2023-04-29T03:31:28.714Z,101343.66
2023-04-29T03:33:56.633Z,101342.84
2023-04-29T03:36:24.488Z,101330.57
2023-04-29T03:38:52.371Z,101340.77
2023-04-29T03:41:20.465Z,101343.36
2023-04-29T03:43:48.374Z,101340.48
2023-04-29T03:46:16.255Z,101345.13
2023-04-29T03:48:44.208Z,101349.31
2023-04-29T03:51:12.234Z,101333.06
2023-04-29T03:53:41.104Z,101342.97
2023-04-29T03:56:09.289Z,101336.91
2023-04-29T03:58:37.208Z,101331.88
2023-04-29T04:01:05.473Z,101333.45
2023-04-29T04:03:34.155Z,101327.89
2023-04-29T04:06:02.296Z,101321.05
2023-04-29T04:08:30.157Z,101329.40
2023-04-29T04:11:04.244Z,101319.69
2023-04-29T04:13:32.111Z,101317.04
2023-04-29T04:16:00.448Z,101313.05
2023-04-29T04:18:28.293Z,101313.24
2023-04-29T04:20:56.152Z,101323.97
2023-04-29T04:23:24.064Z,101331.98
2023-04-29T04:25:51.941Z,101332.47
2023-04-29T04:28:19.776Z,101334.27
2023-04-29T04:30:48.028Z,101337.60
2023-04-29T04:33:17.238Z,101340.19
2023-04-29T04:35:45.446Z,101339.60
2023-04-29T04:38:13.881Z,101345.84
2023-04-29T04:40:46.091Z,101341.40
2023-04-29T04:43:13.981Z,101359.91
2023-04-29T04:45:42.165Z,101346.53
2023-04-29T04:48:10.186Z,101354.34
2023-04-29T04:50:38.158Z,101362.16
2023-04-29T04:53:06.069Z,101359.80
2023-04-29T04:55:35.012Z,101363.96
2023-04-29T04:58:02.894Z,101367.33
2023-04-29T05:00:30.759Z,101370.66
2023-04-29T05:02:59.482Z,101374.06
2023-04-29T05:05:27.545Z,101376.62
2023-04-29T05:07:55.460Z,101379.98
2023-04-29T05:10:27.704Z,101375.21
2023-04-29T05:12:55.544Z,101387.21
2023-04-29T05:15:23.471Z,101381.95
2023-04-29T05:17:51.488Z,101388.98
2023-04-29T05:20:19.584Z,101393.13
2023-04-29T05:22:47.537Z,101397.77
2023-04-29T05:25:15.420Z,101403.79
2023-04-29T05:27:43.321Z,101403.79
2023-04-29T05:30:11.539Z,101396.01
2023-04-29T05:32:39.411Z,101421.16
2023-04-29T05:35:07.745Z,101409.48
2023-04-29T05:37:35.593Z,101411.87
2023-04-29T05:40:03.638Z,101418.21
2023-04-29T05:42:32.026Z,101416.15
2023-04-29T05:45:00.084Z,101421.41
2023-04-29T05:47:28.189Z,101425.63
2023-04-29T05:49:56.176Z,101428.84
2023-04-29T05:52:24.024Z,101429.13
2023-04-29T05:54:51.943Z,101424.78
2023-04-29T05:57:19.829Z,101422.69
2023-04-29T05:59:47.919Z,101424.29
2023-04-29T06:02:15.968Z,101426.98
2023-04-29T06:04:44.105Z,101432.73
2023-04-29T06:07:13.892Z,101429.95
2023-04-29T06:09:42.547Z,101433.68
2023-04-29T06:12:10.443Z,101434.46
2023-04-29T06:14:38.560Z,101435.28
2023-04-29T06:17:06.818Z,101439.89
2023-04-29T06:19:35.351Z,101440.67
2023-04-29T06:22:03.275Z,101445.52
2023-04-29T06:24:31.193Z,101443.84
2023-04-29T06:26:59.121Z,101447.12
2023-04-29T06:29:27.040Z,101453.07
2023-04-29T06:31:55.557Z,101449.02
2023-04-29T06:34:23.856Z,101448.52
2023-04-29T06:36:52.095Z,101444.27
2023-04-29T06:39:20.038Z,101452.88
2023-04-29T06:41:48.068Z,101452.58
2023-04-29T06:44:16.064Z,101454.87
2023-04-29T06:46:44.498Z,101451.20
2023-04-29T06:49:12.966Z,101455.95
2023-04-29T06:51:40.956Z,101462.81
2023-04-29T06:54:08.990Z,101458.92
2023-04-29T06:56:37.293Z,101460.33
2023-04-29T06:59:05.825Z,101455.95
2023-04-29T07:01:33.821Z,101457.32
2023-04-29T07:04:02.293Z,101455.36
2023-04-29T07:06:30.821Z,101458.34
2023-04-29T07:08:58.781Z,101453.76
2023-04-29T07:11:28.461Z,101448.39
2023-04-29T07:13:56.580Z,101452.94
2023-04-29T07:16:27.742Z,101453.33
2023-04-29T07:18:55.692Z,101456.57
2023-04-29T07:21:23.746Z,101451.70
2023-04-29T07:23:51.769Z,101450.48
2023-04-29T07:26:19.955Z,101451.63
2023-04-29T07:28:48.055Z,101452.77
2023-04-29T07:31:16.296Z,101449.77
2023-04-29T07:33:45.915Z,101453.00
2023-04-29T07:36:13.789Z,101454.15
2023-04-29T07:38:41.793Z,101451.11
2023-04-29T07:41:09.620Z,101448.82
2023-04-29T07:43:39.237Z,101447.05
2023-04-29T07:46:08.960Z,101455.26
2023-04-29T07:48:40.887Z,101460.88
2023-04-29T07:51:14.071Z,101462.06
2023-04-29T07:53:42.465Z,101462.88
2023-04-29T07:56:10.766Z,101460.63
2023-04-29T07:58:38.633Z,101455.49
2023-04-29T08:01:11.557Z,101466.05
2023-04-29T08:03:41.790Z,101463.77
2023-04-29T08:06:10.414Z,101455.23
2023-04-29T08:08:38.861Z,101468.38
2023-04-29T08:11:07.674Z,101465.82
2023-04-29T08:13:35.601Z,101464.84
2023-04-29T08:16:03.509Z,101465.69
2023-04-29T08:18:31.422Z,101470.99
2023-04-29T08:20:59.301Z,101475.50
2023-04-29T08:23:27.505Z,101468.18
2023-04-29T08:25:57.249Z,101471.67
2023-04-29T08:28:25.169Z,101477.98
2023-04-29T08:30:53.136Z,101468.02
2023-04-29T08:33:21.013Z,101470.43
2023-04-29T08:35:48.884Z,101475.41
2023-04-29T08:38:17.129Z,101479.13
2023-04-29T08:40:49.363Z,101466.02
2023-04-29T08:43:18.036Z,101467.36
2023-04-29T08:45:47.963Z,101467.62
2023-04-29T08:48:18.748Z,101464.52
2023-04-29T08:50:47.482Z,101467.69
2023-04-29T08:53:16.367Z,101454.09
2023-04-29T08:55:49.425Z,101455.13
2023-04-29T08:58:17.746Z,101454.64
2023-04-29T09:00:46.501Z,101445.98
2023-04-29T09:03:34.769Z,101444.41
2023-04-29T09:06:03.697Z,101441.00
2023-04-29T09:08:32.280Z,101447.31
2023-04-29T09:11:00.885Z,101448.10
2023-04-29T09:13:30.882Z,101440.71
2023-04-29T09:15:59.440Z,101431.26
2023-04-29T09:18:47.766Z,101433.09
2023-04-29T09:21:24.114Z,101429.95
2023-04-29T09:23:54.278Z,101429.95
2023-04-29T09:26:22.871Z,101434.20
2023-04-29T09:29:09.521Z,101429.72
2023-04-29T09:31:39.322Z,101419.98
2023-04-29T09:34:07.640Z,101434.46
2023-04-29T09:36:37.275Z,101425.77
2023-04-29T09:39:07.367Z,101427.86
2023-04-29T09:41:35.347Z,101424.72
2023-04-29T09:44:08.086Z,101419.95
2023-04-29T09:46:38.346Z,101429.66
2023-04-29T09:49:06.576Z,101426.74
2023-04-29T09:51:34.527Z,101423.34
2023-04-29T09:54:04.417Z,101416.48
2023-04-29T09:56:53.271Z,101416.22
2023-04-29T09:59:22.111Z,101420.96
2023-04-29T10:01:51.828Z,101414.65
2023-04-29T10:04:21.235Z,101417.00
2023-04-29T10:06:54.522Z,101415.66
2023-04-29T10:09:24.233Z,101413.80
2023-04-29T10:11:53.939Z,101405.88
2023-04-29T10:14:23.791Z,101412.91
2023-04-29T10:17:05.166Z,101408.59
2023-04-29T10:19:41.385Z,101404.34
2023-04-29T10:22:13.557Z,101400.55
2023-04-29T10:24:41.980Z,101396.53
2023-04-29T10:27:15.855Z,101399.34
2023-04-29T10:29:45.062Z,101401.63
2023-04-29T10:32:15.800Z,101397.61
2023-04-29T10:34:44.807Z,101396.27
2023-04-29T10:37:13.678Z,101383.52
2023-04-29T10:39:59.700Z,101387.18
2023-04-29T10:42:47.672Z,101365.92
2023-04-29T10:45:22.534Z,101371.61
2023-04-29T10:48:07.514Z,101365.76
2023-04-29T10:50:50.655Z,101359.35
2023-04-29T10:53:23.429Z,101360.07
2023-04-29T10:56:20.810Z,101359.13
2023-04-29T10:58:48.883Z,101362.52
2023-04-29T11:01:18.706Z,101355.85
2023-04-29T11:04:01.061Z,101348.88
2023-04-29T11:06:38.048Z,101353.30
2023-04-29T11:09:15.776Z,101346.86
2023-04-29T11:11:47.833Z,101354.58
2023-04-29T11:14:16.636Z,101344.34
2023-04-29T11:16:56.252Z,101345.52
2023-04-29T11:19:26.740Z,101338.98
2023-04-29T11:22:25.476Z,101335.22
2023-04-29T11:24:54.848Z,101334.11
2023-04-29T11:27:26.841Z,101327.34
2023-04-29T11:30:00.025Z,101319.85
2023-04-29T11:32:29.977Z,101322.89
2023-04-29T11:35:15.501Z,101312.33
2023-04-29T11:37:46.838Z,101307.75
2023-04-29T11:40:15.970Z,101314.45
2023-04-29T11:42:49.859Z,101308.30
2023-04-29T11:45:21.566Z,101299.58
2023-04-29T11:47:51.259Z,101308.57
2023-04-29T11:50:21.408Z,101314.13
2023-04-29T11:52:50.391Z,101307.98
2023-04-29T11:55:19.798Z,101312.36
2023-04-29T11:57:50.971Z,101306.08
2023-04-29T12:00:19.201Z,101304.52
2023-04-29T12:02:48.175Z,101303.76
2023-04-29T12:05:17.677Z,101309.91
2023-04-29T12:07:46.220Z,101289.96
2023-04-29T12:10:14.413Z,101294.77
2023-04-29T12:12:44.963Z,101305.43
2023-04-29T12:15:14.093Z,101302.26
2023-04-29T12:17:42.709Z,101296.92
2023-04-29T12:20:12.085Z,101296.92
2023-04-29T12:22:40.238Z,101301.73
2023-04-29T12:25:09.078Z,101306.54
2023-04-29T12:27:45.346Z,101302.62
2023-04-29T12:30:13.865Z,101297.58
2023-04-29T12:32:42.469Z,101292.09
2023-04-29T12:35:18.464Z,101303.50
2023-04-29T12:37:50.298Z,101300.82
2023-04-29T12:40:19.137Z,101312.55
2023-04-29T12:42:47.910Z,101293.20
2023-04-29T12:45:30.607Z,101299.70
2023-04-29T12:47:59.492Z,101299.02
2023-04-29T12:50:35.732Z,101298.07
2023-04-29T12:53:09.114Z,101311.02
2023-04-29T12:55:39.357Z,101319.69
2023-04-29T12:58:08.659Z,101324.85
2023-04-29T13:00:38.765Z,101320.30
2023-04-29T13:03:07.259Z,101330.51
2023-04-29T13:05:35.517Z,101332.77
2023-04-29T13:08:03.997Z,101339.47
2023-04-29T13:10:32.377Z,101346.56
2023-04-29T13:13:00.544Z,101359.48
2023-04-29T13:15:29.164Z,101380.60
2023-04-29T13:17:57.562Z,101391.30
2023-04-29T13:20:25.619Z,101402.81
2023-04-29T13:22:53.791Z,101396.56
2023-04-29T13:25:21.696Z,101386.23
2023-04-29T13:27:49.687Z,101390.28
2023-04-29T13:30:17.619Z,101395.38
2023-04-29T13:32:53.274Z,101388.45
2023-04-29T13:35:22.552Z,101384.70
2023-04-29T13:37:50.800Z,101379.92
2023-04-29T13:40:20.850Z,101376.71
2023-04-29T13:42:50.616Z,101377.17
2023-04-29T13:45:21.399Z,101367.98
2023-04-29T13:51:00.999Z,101364.29
2023-04-29T13:56:28.299Z,101360.66
2023-04-29T13:58:40.984Z,101367.79
2023-04-29T14:01:44.192Z,101371.48
2023-04-29T14:04:04.352Z,101365.27
2023-04-29T14:06:33.968Z,101363.73
2023-04-29T14:09:03.940Z,101366.88
2023-04-29T14:11:32.319Z,101357.95
2023-04-29T14:14:00.652Z,101365.83
2023-04-29T14:16:30.029Z,101374.75
2023-04-29T14:18:58.038Z,101366.12
2023-04-29T14:21:26.110Z,101368.51
2023-04-29T14:23:54.225Z,101361.70
2023-04-29T14:26:28.518Z,101349.93
2023-04-29T14:29:01.012Z,101362.82
2023-04-29T14:31:32.718Z,101351.80
2023-04-29T14:34:01.050Z,101352.09
2023-04-29T14:36:29.569Z,101351.80
2023-04-29T14:38:57.497Z,101364.71
2023-04-29T14:41:25.645Z,101356.60
2023-04-29T14:43:53.699Z,101352.68
2023-04-29T14:46:23.396Z,101339.34
2023-04-29T14:48:51.402Z,101326.48
2023-04-29T14:51:19.410Z,101342.54
2023-04-29T14:53:47.398Z,101341.76
2023-04-29T14:56:15.432Z,101350.72
2023-04-29T14:58:43.579Z,101356.77
2023-04-29T15:01:11.554Z,101363.63
2023-04-29T15:03:44.188Z,101362.33
2023-04-29T15:06:13.246Z,101366.05
2023-04-29T15:08:41.292Z,101360.79
2023-04-29T15:11:09.186Z,101358.44
2023-04-29T15:13:37.311Z,101370.05
2023-04-29T15:16:05.575Z,101369.48
2023-04-29T15:18:33.541Z,101368.44
2023-04-29T15:21:01.581Z,101372.66
2023-04-29T15:23:29.472Z,101371.61
2023-04-29T15:25:58.066Z,101380.02
2023-04-29T15:28:27.163Z,101376.32
2023-04-29T15:30:55.066Z,101370.05
2023-04-29T15:33:23.447Z,101364.74
2023-04-29T15:35:51.351Z,101375.27
2023-04-29T15:38:19.635Z,101372.92
2023-04-29T15:40:47.770Z,101367.39
2023-04-29T15:43:15.959Z,101368.96
2023-04-29T15:45:44.060Z,101355.00
2023-04-29T15:48:12.060Z,101363.41
2023-04-29T15:50:39.972Z,101367.88
2023-04-29T15:53:07.983Z,101364.16
2023-04-29T15:55:36.773Z,101366.77
2023-04-29T15:58:04.652Z,101366.71
2023-04-29T16:00:32.906Z,101365.89
2023-04-29T16:03:01.056Z,101367.95
2023-04-29T16:05:29.550Z,101367.43
2023-04-29T16:07:57.436Z,101369.75
2023-04-29T16:10:25.387Z,101367.10
2023-04-29T16:12:53.310Z,101373.12
2023-04-29T16:15:21.294Z,101360.95
2023-04-29T16:17:49.543Z,101362.20
2023-04-29T16:20:18.744Z,101374.03
2023-04-29T16:22:46.716Z,101373.77
2023-04-29T16:25:14.848Z,101385.31
2023-04-29T16:27:42.787Z,101379.49
2023-04-29T16:30:11.347Z,101386.82
2023-04-29T16:32:39.359Z,101388.88
2023-04-29T16:35:07.737Z,101399.41
2023-04-29T16:37:35.821Z,101396.76
2023-04-29T16:40:04.366Z,101397.55
2023-04-29T16:42:32.370Z,101403.33
2023-04-29T16:45:00.338Z,101402.58
2023-04-29T16:47:28.370Z,101407.59
2023-04-29T16:49:57.070Z,101398.10
2023-04-29T16:52:25.456Z,101408.59
2023-04-29T16:54:53.398Z,101406.47
2023-04-29T16:57:22.609Z,101410.43
2023-04-29T16:59:50.553Z,101420.70
2023-04-29T17:02:18.516Z,101414.91
2023-04-29T17:04:46.607Z,101420.70
2023-04-29T17:07:15.822Z,101413.08
2023-04-29T17:09:45.688Z,101423.12
2023-04-29T17:12:13.547Z,101420.76
2023-04-29T17:14:41.536Z,101426.84
2023-04-29T17:17:09.564Z,101424.78
2023-04-29T17:19:37.406Z,101431.39
2023-04-29T17:22:05.303Z,101429.33
2023-04-29T17:24:34.032Z,101432.77
2023-04-29T17:27:01.983Z,101440.19
2023-04-29T17:29:30.173Z,101431.26
2023-04-29T17:32:01.373Z,101440.80
2023-04-29T17:34:31.166Z,101435.80
2023-04-29T17:36:59.119Z,101442.44
2023-04-29T17:39:27.148Z,101446.13
2023-04-29T17:41:55.089Z,101448.27
2023-04-29T17:44:23.667Z,101444.86
2023-04-29T17:46:51.950Z,101453.82
2023-04-29T17:49:19.900Z,101451.76
2023-04-29T17:51:47.909Z,101455.72
2023-04-29T17:54:15.817Z,101456.27
2023-04-29T17:56:43.804Z,101462.36
2023-04-29T17:59:12.475Z,101477.59
2023-04-29T18:01:40.570Z,101484.98
2023-04-29T18:04:08.850Z,101489.98
2023-04-29T18:06:36.955Z,101488.41
2023-04-29T18:09:06.592Z,101490.77
2023-04-29T18:11:34.550Z,101492.87
2023-04-29T18:14:02.512Z,101496.79
2023-04-29T18:16:31.285Z,101499.41
2023-04-29T18:18:59.333Z,101508.56
2023-04-29T18:21:28.874Z,101511.44
2023-04-29T18:23:57.403Z,101512.23
2023-04-29T18:26:25.811Z,101535.84
2023-04-29T18:28:53.948Z,101519.52
2023-04-29T18:31:21.997Z,101523.96
2023-04-29T18:33:49.994Z,101528.12
2023-04-29T18:36:17.960Z,101534.88
2023-04-29T18:38:46.155Z,101545.87
2023-04-29T18:41:15.200Z,101547.38
2023-04-29T18:43:43.218Z,101557.05
2023-04-29T18:46:11.122Z,101558.00
2023-04-29T18:48:40.240Z,101559.77
2023-04-29T18:51:08.692Z,101567.59
2023-04-29T18:53:36.712Z,101575.14
2023-04-29T18:56:04.725Z,101561.90
2023-04-29T18:58:32.731Z,101577.07
2023-04-29T19:01:01.058Z,101579.62
2023-04-29T19:03:29.096Z,101584.55
2023-04-29T19:05:57.025Z,101602.87
2023-04-29T19:08:25.836Z,101604.41
2023-04-29T19:10:54.837Z,101600.68
2023-04-29T19:13:22.729Z,101608.76
2023-04-29T19:15:55.786Z,101618.14
2023-04-29T19:18:24.640Z,101621.24
2023-04-29T19:20:53.276Z,101633.21
2023-04-29T19:23:21.289Z,101627.69
2023-04-29T19:25:49.251Z,101636.26
2023-04-29T19:28:17.270Z,101636.48
2023-04-29T19:30:45.320Z,101633.54
2023-04-29T19:33:13.397Z,101634.23
2023-04-29T19:35:41.263Z,101649.66
2023-04-29T19:38:09.293Z,101638.02
2023-04-29T19:40:37.237Z,101642.63
2023-04-29T19:43:05.173Z,101640.48
2023-04-29T19:45:33.026Z,101640.67
2023-04-29T19:48:03.321Z,101656.07
2023-04-29T19:50:31.225Z,101652.60
2023-04-29T19:52:59.782Z,101668.04
2023-04-29T19:55:27.815Z,101665.55
2023-04-29T19:57:55.785Z,101661.56
2023-04-29T20:00:23.854Z,101661.50
2023-04-29T20:02:53.541Z,101662.48
2023-04-29T20:05:21.496Z,101662.22
2023-04-29T20:07:49.917Z,101663.98
2023-04-29T20:10:18.012Z,101666.77
2023-04-29T20:12:45.910Z,101671.77
2023-04-29T20:15:14.030Z,101676.41
2023-04-29T20:17:41.951Z,101674.52
2023-04-29T20:20:10.428Z,101676.61
2023-04-29T20:22:38.366Z,101690.73
2023-04-29T20:25:07.019Z,101685.17
2023-04-29T20:27:35.026Z,101673.04
2023-04-29T20:30:03.275Z,101674.02
2023-04-29T20:32:32.173Z,101684.78
2023-04-29T20:35:00.113Z,101682.40
2023-04-29T20:37:28.027Z,101679.98
2023-04-29T20:39:56.004Z,101678.93
2023-04-29T20:42:23.949Z,101679.42
2023-04-29T20:44:51.847Z,101683.57
2023-04-29T20:47:20.328Z,101690.34
2023-04-29T20:49:48.302Z,101693.71
2023-04-29T20:52:16.931Z,101689.72
2023-04-29T20:54:44.824Z,101706.20
2023-04-29T20:57:12.716Z,101695.18
2023-04-29T20:59:40.681Z,101696.49
2023-04-29T21:02:08.670Z,101700.84
2023-04-29T21:04:36.709Z,101691.91
2023-04-29T21:07:05.436Z,101695.28
2023-04-29T21:09:33.310Z,101685.24
2023-04-29T21:12:02.657Z,101694.69
2023-04-29T21:14:30.540Z,101691.52
2023-04-29T21:16:58.426Z,101701.39
2023-04-29T21:19:26.550Z,101703.98
2023-04-29T21:21:54.473Z,101700.80
2023-04-29T21:24:22.812Z,101700.02
2023-04-29T21:26:51.835Z,101699.23
2023-04-29T21:29:21.220Z,101696.52
2023-04-29T21:31:49.241Z,101691.26
2023-04-29T21:34:17.649Z,101697.53
2023-04-29T21:36:45.660Z,101694.66
2023-04-29T21:39:13.590Z,101707.45
2023-04-29T21:41:43.335Z,101704.24
2023-04-29T21:44:11.379Z,101701.55
2023-04-29T21:46:39.810Z,101698.35
2023-04-29T21:49:08.690Z,101703.03
2023-04-29T21:51:39.886Z,101701.91
2023-04-29T21:54:09.781Z,101700.34
2023-04-29T21:56:37.693Z,101698.74
2023-04-29T21:59:05.761Z,101700.51
2023-04-29T22:01:42.616Z,101698.13
2023-04-29T22:04:10.540Z,101706.98
2023-04-29T22:06:38.951Z,101709.05
2023-04-29T22:09:08.549Z,101703.45
2023-04-29T22:11:36.651Z,101705.05
2023-04-29T22:14:04.647Z,101702.70
2023-04-29T22:16:32.738Z,101707.34
2023-04-29T22:19:00.676Z,101714.38
2023-04-29T22:21:29.582Z,101707.80
2023-04-29T22:23:57.520Z,101701.75
2023-04-29T22:26:26.837Z,101699.70
2023-04-29T22:28:54.764Z,101700.19
2023-04-29T22:31:22.726Z,101693.94
2023-04-29T22:33:50.600Z,101700.48
2023-04-29T22:36:18.486Z,101690.27
2023-04-29T22:38:46.453Z,101696.33
2023-04-29T22:41:14.947Z,101697.60
2023-04-29T22:43:42.858Z,101704.17
2023-04-29T22:46:10.861Z,101704.63
2023-04-29T22:48:38.786Z,101706.23
2023-04-29T22:51:07.035Z,101700.48
2023-04-29T22:53:34.949Z,101701.75
2023-04-29T22:56:03.337Z,101699.70
2023-04-29T22:58:31.204Z,101698.88
2023-04-29T23:00:59.351Z,101690.73
2023-04-29T23:03:28.365Z,101700.64
2023-04-29T23:06:00.698Z,101707.70
2023-04-29T23:08:29.026Z,101706.10
2023-04-29T23:10:56.881Z,101708.20
2023-04-29T23:13:24.937Z,101716.01
2023-04-29T23:15:53.605Z,101720.49
2023-04-29T23:18:21.568Z,101722.26
2023-04-29T23:20:49.580Z,101716.20
2023-04-29T23:23:17.615Z,101719.09
2023-04-29T23:25:46.953Z,101716.20
2023-04-29T23:28:14.906Z,101713.33
2023-04-29T23:30:42.776Z,101716.70
2023-04-29T23:33:10.703Z,101714.31
2023-04-29T23:35:38.671Z,101713.20
2023-04-29T23:38:06.744Z,101709.54
2023-04-29T23:40:34.675Z,101708.45
2023-04-29T23:43:02.633Z,101714.96
2023-04-29T23:45:30.563Z,101721.99
2023-04-29T23:47:58.473Z,101718.37
2023-04-29T23:50:26.388Z,101708.62
2023-04-29T23:52:54.318Z,101709.90
2023-04-29T23:55:22.226Z,101713.27
2023-04-29T23:57:50.156Z,101714.08
